createdAt,value
2022-09-30T00:00:39.640Z,12.35
2022-09-30T00:03:06.079Z,8.30
2022-09-30T00:05:32.484Z,13.15
2022-09-30T00:07:59.110Z,8.13
2022-09-30T00:10:25.508Z,11.25
2022-09-30T00:12:52.718Z,12.32
2022-09-30T00:15:20.166Z,13.73
2022-09-30T00:17:46.609Z,13.25
2022-09-30T00:20:13.078Z,12.05
2022-09-30T00:22:39.891Z,13.52
2022-09-30T00:25:07.112Z,13.63
2022-09-30T00:27:33.486Z,12.15
2022-09-30T00:29:59.834Z,12.68
2022-09-30T00:32:26.314Z,9.98
2022-09-30T00:34:52.714Z,18.48
2022-09-30T00:37:19.226Z,15.52
2022-09-30T00:39:45.653Z,21.92
2022-09-30T00:42:14.438Z,15.48
2022-09-30T00:44:51.825Z,26.48
2022-09-30T00:47:33.513Z,25.15
2022-09-30T00:50:22.161Z,28.27
2022-09-30T00:52:58.393Z,24.48
2022-09-30T00:55:33.734Z,29.80
2022-09-30T00:58:02.917Z,21.65
2022-09-30T01:00:29.710Z,22.20
2022-09-30T01:02:56.270Z,21.95
2022-09-30T01:05:26.432Z,18.38
2022-09-30T01:07:56.395Z,20.38
2022-09-30T01:10:22.766Z,26.98
2022-09-30T01:12:49.245Z,26.95
2022-09-30T01:15:15.840Z,27.02
2022-09-30T01:18:06.044Z,24.95
2022-09-30T01:21:03.416Z,29.95
2022-09-30T01:23:56.632Z,30.92
2022-09-30T01:26:41.948Z,30.40
2022-09-30T01:35:10.642Z,31.90
2022-09-30T01:37:49.261Z,32.03
2022-09-30T01:40:26.160Z,47.72
2022-09-30T01:43:11.648Z,31.02
2022-09-30T01:46:00.071Z,27.40
2022-09-30T01:48:54.346Z,27.92
2022-09-30T01:51:30.857Z,37.55
2022-09-30T01:54:04.181Z,42.40
2022-09-30T01:56:42.782Z,17.48
2022-09-30T01:59:27.601Z,24.15
2022-09-30T02:02:19.521Z,25.83
2022-09-30T02:04:55.461Z,24.25
2022-09-30T02:07:30.704Z,22.67
2022-09-30T02:10:05.660Z,20.95
2022-09-30T02:12:35.700Z,21.73
2022-09-30T02:15:09.286Z,30.05
2022-09-30T02:17:45.172Z,24.48
2022-09-30T02:20:53.435Z,22.02
2022-09-30T02:23:26.534Z,21.10
2022-09-30T02:26:05.887Z,27.17
2022-09-30T02:28:32.840Z,34.95
2022-09-30T02:31:02.317Z,24.10
2022-09-30T02:33:35.207Z,14.77
2022-09-30T02:36:34.583Z,25.17
2022-09-30T02:39:06.375Z,16.23
2022-09-30T02:41:44.092Z,22.58
2022-09-30T02:44:10.817Z,17.25
2022-09-30T02:46:54.903Z,19.98
2022-09-30T02:49:38.954Z,22.35
2022-09-30T02:52:24.580Z,20.83
2022-09-30T02:55:15.887Z,21.10
2022-09-30T02:57:53.388Z,18.70
2022-09-30T03:00:19.754Z,15.65
2022-09-30T03:02:46.379Z,18.35
2022-09-30T03:05:12.862Z,13.13
2022-09-30T03:07:40.375Z,17.40
2022-09-30T03:10:17.977Z,22.58
2022-09-30T03:13:15.973Z,20.55
2022-09-30T03:15:45.014Z,19.80
2022-09-30T03:18:22.570Z,18.42
2022-09-30T03:21:07.034Z,16.65
2022-09-30T03:23:42.624Z,23.15
2022-09-30T03:26:25.828Z,12.05
2022-09-30T03:29:27.624Z,24.08
2022-09-30T03:32:18.697Z,10.48
2022-09-30T03:35:00.400Z,14.93
2022-09-30T03:37:33.852Z,19.25
2022-09-30T03:40:13.426Z,17.95
2022-09-30T03:42:45.703Z,22.10
2022-09-30T03:45:20.408Z,22.77
2022-09-30T03:47:52.024Z,33.88
2022-09-30T03:50:21.766Z,22.25
2022-09-30T03:52:49.661Z,13.88
2022-09-30T03:55:17.193Z,12.30
2022-09-30T03:57:44.629Z,10.15
2022-09-30T04:00:13.208Z,17.85
2022-09-30T04:02:39.604Z,19.05
2022-09-30T04:05:06.691Z,30.58
2022-09-30T04:07:33.313Z,11.85
2022-09-30T04:09:59.739Z,31.38
2022-09-30T04:12:26.479Z,18.08
2022-09-30T04:14:52.850Z,24.20
2022-09-30T04:17:19.301Z,20.48
2022-09-30T04:19:45.686Z,30.85
2022-09-30T04:22:12.071Z,26.30
2022-09-30T04:24:39.452Z,22.98
2022-09-30T04:27:05.901Z,27.88
2022-09-30T04:29:32.321Z,27.42
2022-09-30T04:31:58.808Z,24.50
2022-09-30T04:34:25.330Z,26.42
2022-09-30T04:36:51.742Z,20.90
2022-09-30T04:39:18.150Z,58.20
2022-09-30T04:41:44.572Z,26.02
2022-09-30T04:44:10.992Z,20.65
2022-09-30T04:46:37.381Z,48.60
2022-09-30T04:49:08.785Z,33.42
2022-09-30T04:51:36.420Z,21.20
2022-09-30T04:54:02.929Z,18.80
2022-09-30T04:56:29.375Z,22.83
2022-09-30T04:58:55.774Z,24.25
2022-09-30T05:01:22.330Z,21.92
2022-09-30T05:03:49.007Z,17.17
2022-09-30T05:06:15.554Z,18.90
2022-09-30T05:08:46.412Z,14.60
2022-09-30T05:11:19.609Z,21.02
2022-09-30T05:13:47.016Z,15.05
2022-09-30T05:16:14.515Z,14.65
2022-09-30T05:18:45.443Z,22.50
2022-09-30T05:21:14.422Z,16.70
2022-09-30T05:23:40.836Z,14.50
2022-09-30T05:26:11.925Z,22.90
2022-09-30T05:28:39.500Z,18.27
2022-09-30T05:31:06.580Z,19.48
2022-09-30T05:33:34.026Z,9.48
2022-09-30T05:36:05.720Z,15.27
2022-09-30T05:38:32.835Z,23.80
2022-09-30T05:41:06.389Z,20.40
2022-09-30T05:43:32.957Z,11.68
2022-09-30T05:45:59.368Z,12.43
2022-09-30T05:48:27.848Z,11.57
2022-09-30T05:50:58.380Z,9.73
2022-09-30T05:53:25.129Z,10.75
2022-09-30T05:55:52.209Z,7.68
2022-09-30T05:58:19.558Z,8.98
2022-09-30T06:00:47.869Z,6.28
2022-09-30T06:03:14.895Z,9.20
2022-09-30T06:05:41.326Z,9.88
2022-09-30T06:08:07.952Z,7.32
2022-09-30T06:10:35.465Z,7.00
2022-09-30T06:13:04.861Z,8.63
2022-09-30T06:15:32.172Z,10.80
2022-09-30T06:17:58.644Z,9.73
2022-09-30T06:20:25.537Z,11.13
2022-09-30T06:22:51.970Z,15.52
2022-09-30T06:25:18.538Z,10.70
2022-09-30T06:27:46.928Z,14.02
2022-09-30T06:30:14.179Z,8.43
2022-09-30T06:32:40.833Z,25.88
2022-09-30T06:35:07.622Z,15.23
2022-09-30T06:37:36.753Z,9.43
2022-09-30T06:40:07.553Z,7.15
2022-09-30T06:42:34.930Z,8.00
2022-09-30T06:45:01.410Z,7.88
2022-09-30T06:47:27.879Z,9.70
2022-09-30T06:49:58.489Z,9.10
2022-09-30T06:52:26.339Z,8.82
2022-09-30T06:54:53.421Z,7.03
2022-09-30T06:57:22.512Z,8.85
2022-09-30T06:59:49.363Z,7.05
2022-09-30T07:02:15.785Z,9.15
2022-09-30T07:04:42.539Z,7.72
2022-09-30T07:07:08.916Z,9.15
2022-09-30T07:09:35.457Z,8.35
2022-09-30T07:12:02.092Z,11.48
2022-09-30T07:14:28.474Z,6.22
2022-09-30T07:16:54.935Z,13.35
2022-09-30T07:19:24.163Z,7.55
2022-09-30T07:21:50.618Z,10.48
2022-09-30T07:24:18.075Z,8.55
2022-09-30T07:26:47.052Z,10.18
2022-09-30T07:29:13.797Z,8.90
2022-09-30T07:31:40.959Z,6.07
2022-09-30T07:34:09.213Z,9.00
2022-09-30T07:36:38.435Z,8.63
2022-09-30T07:39:07.952Z,7.57
2022-09-30T07:41:37.517Z,8.10
2022-09-30T07:44:06.382Z,9.77
2022-09-30T07:46:35.383Z,7.35
2022-09-30T07:49:04.064Z,9.68
2022-09-30T07:51:43.716Z,8.90
2022-09-30T07:54:14.221Z,7.60
2022-09-30T07:57:08.216Z,9.80
2022-09-30T07:59:29.890Z,12.15
2022-09-30T08:01:56.517Z,8.70
2022-09-30T08:04:24.461Z,12.77
2022-09-30T08:06:53.899Z,8.95
2022-09-30T08:09:22.206Z,10.80
2022-09-30T08:11:49.314Z,8.93
2022-09-30T08:14:19.163Z,16.08
2022-09-30T08:16:45.574Z,13.50
2022-09-30T08:19:17.854Z,16.20
2022-09-30T08:21:45.801Z,19.02
2022-09-30T08:24:12.930Z,17.63
2022-09-30T08:26:40.095Z,14.05
2022-09-30T08:29:06.745Z,21.45
2022-09-30T08:31:33.799Z,12.60
2022-09-30T08:34:00.645Z,19.77
2022-09-30T08:36:27.882Z,17.17
2022-09-30T08:38:55.044Z,13.95
2022-09-30T08:41:49.296Z,14.45
2022-09-30T08:44:45.340Z,10.40
2022-09-30T08:47:40.042Z,14.90
2022-09-30T08:50:32.504Z,18.88
2022-09-30T08:53:03.728Z,15.55
2022-09-30T08:58:05.310Z,15.23
2022-09-30T09:00:31.887Z,15.75
2022-09-30T09:03:00.357Z,17.58
2022-09-30T09:05:52.733Z,14.98
2022-09-30T09:08:31.546Z,17.27
2022-09-30T09:11:16.913Z,12.77
2022-09-30T09:14:06.580Z,15.88
2022-09-30T09:16:41.100Z,14.52
2022-09-30T09:19:22.941Z,15.60
2022-09-30T09:22:01.826Z,14.80
2022-09-30T09:24:41.630Z,13.73
2022-09-30T09:27:19.363Z,13.23
2022-09-30T09:30:20.882Z,15.63
2022-09-30T09:33:00.739Z,18.92
2022-09-30T09:35:36.052Z,18.73
2022-09-30T09:38:35.615Z,15.80
2022-09-30T09:41:08.709Z,14.48
2022-09-30T09:43:38.087Z,17.45
2022-09-30T09:46:26.431Z,17.85
2022-09-30T09:49:20.162Z,17.10
2022-09-30T09:52:15.695Z,65.15
2022-09-30T09:54:45.183Z,26.45
2022-09-30T09:57:15.278Z,18.08
2022-09-30T10:00:25.269Z,15.93
2022-09-30T10:03:13.054Z,16.90
2022-09-30T10:05:39.715Z,24.50
2022-09-30T10:08:12.316Z,22.90
2022-09-30T10:10:51.810Z,20.90
2022-09-30T10:13:20.905Z,13.73
2022-09-30T10:15:48.922Z,16.45
2022-09-30T10:18:50.946Z,18.80
2022-09-30T10:21:29.150Z,20.25
2022-09-30T10:23:57.594Z,13.80
2022-09-30T10:29:01.766Z,16.75
2022-09-30T10:31:34.969Z,17.25
2022-09-30T10:34:21.842Z,16.35
2022-09-30T10:36:49.023Z,23.77
2022-09-30T10:39:32.586Z,18.65
2022-09-30T10:42:07.287Z,22.70
2022-09-30T10:44:41.179Z,16.85
2022-09-30T10:47:07.731Z,18.38
2022-09-30T10:49:53.505Z,14.48
2022-09-30T10:52:28.856Z,19.02
2022-09-30T10:55:14.726Z,21.58
2022-09-30T10:57:43.249Z,20.80
2022-09-30T11:00:18.674Z,16.00
2022-09-30T11:02:55.252Z,17.38
2022-09-30T11:05:31.355Z,20.48
2022-09-30T11:08:25.536Z,15.77
2022-09-30T11:11:10.364Z,16.35
2022-09-30T11:13:56.938Z,15.43
2022-09-30T11:16:37.036Z,16.70
2022-09-30T11:19:12.502Z,19.88
2022-09-30T11:21:41.966Z,16.50
2022-09-30T11:24:11.508Z,15.90
2022-09-30T11:26:48.462Z,20.77
2022-09-30T11:29:25.259Z,17.80
2022-09-30T11:32:18.169Z,18.60
2022-09-30T11:35:08.798Z,16.25
2022-09-30T11:38:10.513Z,21.63
2022-09-30T11:41:04.254Z,22.58
2022-09-30T11:43:36.494Z,26.00
2022-09-30T11:46:29.643Z,17.95
2022-09-30T11:49:10.719Z,19.38
2022-09-30T11:52:04.814Z,19.50
2022-09-30T11:54:34.270Z,17.30
2022-09-30T11:57:03.670Z,23.48
2022-09-30T11:59:38.690Z,20.27
2022-09-30T12:02:18.866Z,19.00
2022-09-30T12:04:47.111Z,17.08
2022-09-30T12:07:22.474Z,19.83
2022-09-30T12:10:02.609Z,16.77
2022-09-30T12:12:29.166Z,19.38
2022-09-30T12:15:01.012Z,20.58
2022-09-30T12:17:47.033Z,19.60
2022-09-30T12:20:21.944Z,20.08
2022-09-30T12:22:51.913Z,16.48
2022-09-30T12:25:26.817Z,18.45
2022-09-30T12:28:26.119Z,20.23
2022-09-30T12:31:21.187Z,13.82
2022-09-30T12:33:58.999Z,14.43
2022-09-30T12:36:31.679Z,11.52
2022-09-30T12:39:23.054Z,10.88
2022-09-30T12:42:20.943Z,14.55
2022-09-30T12:44:59.481Z,10.32
2022-09-30T12:47:48.494Z,9.43
2022-09-30T12:50:18.515Z,16.52
2022-09-30T12:52:45.018Z,10.88
2022-09-30T12:55:38.438Z,13.70
2022-09-30T12:58:05.458Z,10.70
2022-09-30T13:00:36.021Z,11.93
2022-09-30T13:03:15.241Z,8.68
2022-09-30T13:05:46.729Z,10.25
2022-09-30T13:08:16.098Z,9.80
2022-09-30T13:10:48.158Z,6.50
2022-09-30T13:13:27.839Z,8.13
2022-09-30T13:16:03.552Z,8.20
2022-09-30T13:18:29.989Z,7.00
2022-09-30T13:20:57.471Z,4.85
2022-09-30T13:23:41.335Z,8.70
2022-09-30T13:26:23.253Z,8.88
2022-09-30T13:29:16.471Z,7.95
2022-09-30T13:31:45.702Z,4.55
2022-09-30T13:34:21.342Z,6.10
2022-09-30T13:36:50.721Z,4.90
2022-09-30T13:39:21.939Z,5.07
2022-09-30T13:44:39.409Z,6.05
2022-09-30T13:47:16.957Z,3.20
2022-09-30T13:50:20.110Z,7.43
2022-09-30T13:52:53.698Z,5.07
2022-09-30T13:55:25.728Z,4.68
2022-09-30T13:58:27.753Z,3.85
2022-09-30T14:01:01.088Z,4.78
2022-09-30T14:03:44.683Z,4.35
2022-09-30T14:06:52.718Z,5.13
2022-09-30T14:09:34.640Z,4.90
2022-09-30T14:12:19.568Z,3.78
2022-09-30T14:15:07.877Z,4.97
2022-09-30T14:17:44.107Z,6.43
2022-09-30T14:20:31.987Z,5.47
2022-09-30T14:22:58.442Z,2.97
2022-09-30T14:25:25.005Z,5.88
2022-09-30T14:28:04.171Z,6.28
2022-09-30T14:30:38.919Z,2.50
2022-09-30T14:33:28.033Z,3.25
2022-09-30T14:35:54.598Z,3.28
2022-09-30T14:38:27.989Z,2.20
2022-09-30T14:40:58.335Z,4.82
2022-09-30T14:43:33.498Z,5.37
2022-09-30T14:46:07.098Z,3.28
2022-09-30T14:48:38.682Z,3.45
2022-09-30T14:51:14.038Z,2.08
2022-09-30T14:53:52.736Z,4.07
2022-09-30T14:56:27.201Z,3.30
2022-09-30T14:58:57.586Z,2.95
2022-09-30T15:01:25.766Z,5.72
2022-09-30T15:03:58.300Z,4.05
2022-09-30T15:06:29.834Z,3.63
2022-09-30T15:09:23.809Z,3.97
2022-09-30T15:11:50.582Z,2.35
2022-09-30T15:14:22.432Z,3.85
2022-09-30T15:16:58.616Z,1.83
2022-09-30T15:19:42.662Z,3.85
2022-09-30T15:22:12.364Z,5.53
2022-09-30T15:24:40.585Z,3.58
2022-09-30T15:27:30.418Z,7.88
2022-09-30T15:29:59.750Z,5.97
2022-09-30T15:32:29.611Z,4.30
2022-09-30T15:34:58.386Z,7.18
2022-09-30T15:37:29.777Z,5.63
2022-09-30T15:40:14.538Z,4.40
2022-09-30T15:43:06.274Z,7.32
2022-09-30T15:45:41.273Z,8.88
2022-09-30T15:48:32.964Z,5.50
2022-09-30T15:51:01.234Z,7.57
2022-09-30T15:53:46.123Z,6.57
2022-09-30T15:56:19.553Z,4.75
2022-09-30T15:58:59.593Z,6.97
2022-09-30T16:01:33.097Z,3.15
2022-09-30T16:04:05.479Z,5.35
2022-09-30T16:06:37.102Z,5.07
2022-09-30T16:09:08.309Z,5.75
2022-09-30T16:11:41.895Z,5.72
2022-09-30T16:14:17.457Z,4.43
2022-09-30T16:16:50.584Z,2.78
2022-09-30T16:19:18.803Z,2.63
2022-09-30T16:21:52.469Z,5.93
2022-09-30T16:24:27.176Z,7.38
2022-09-30T16:27:15.525Z,11.00
2022-09-30T16:29:41.877Z,14.25
2022-09-30T16:32:10.044Z,14.63
2022-09-30T16:34:37.911Z,14.93
2022-09-30T16:37:11.917Z,18.15
2022-09-30T16:39:38.614Z,16.73
2022-09-30T16:42:05.062Z,17.77
2022-09-30T16:44:35.385Z,17.20
2022-09-30T16:47:02.673Z,18.63
2022-09-30T16:49:29.183Z,20.70
2022-09-30T16:51:55.687Z,21.55
2022-09-30T16:54:22.056Z,18.08
2022-09-30T16:56:49.292Z,19.77
2022-09-30T16:59:17.299Z,16.63
2022-09-30T17:01:44.038Z,22.40
2022-09-30T17:04:14.070Z,22.15
2022-09-30T17:06:43.613Z,30.48
2022-09-30T17:09:09.973Z,39.13
2022-09-30T17:11:37.916Z,42.53
2022-09-30T17:14:05.498Z,29.58
2022-09-30T17:16:32.956Z,26.48
2022-09-30T17:19:00.120Z,30.38
2022-09-30T17:21:26.837Z,30.15
2022-09-30T17:23:54.830Z,17.65
2022-09-30T17:26:21.497Z,19.77
2022-09-30T17:28:47.955Z,23.27
2022-09-30T17:31:14.999Z,17.30
2022-09-30T17:33:41.524Z,17.42
2022-09-30T17:36:10.319Z,24.10
2022-09-30T17:38:38.043Z,23.35
2022-09-30T17:41:24.683Z,35.88
2022-09-30T17:43:51.082Z,15.18
2022-09-30T17:46:23.069Z,15.57
2022-09-30T17:48:51.089Z,14.13
2022-09-30T17:51:17.541Z,13.38
2022-09-30T17:53:44.768Z,18.20
2022-09-30T17:56:19.978Z,16.42
2022-09-30T17:58:48.883Z,13.13
2022-09-30T18:01:17.875Z,9.60
2022-09-30T18:03:45.667Z,9.38
2022-09-30T18:06:14.434Z,10.25
2022-09-30T18:08:41.045Z,14.13
2022-09-30T18:11:07.592Z,11.95
2022-09-30T18:13:34.044Z,11.90
2022-09-30T18:16:05.588Z,11.95
2022-09-30T18:18:34.162Z,11.70
2022-09-30T18:21:00.602Z,31.92
2022-09-30T18:23:26.985Z,21.48
2022-09-30T18:25:54.961Z,17.58
2022-09-30T18:28:21.429Z,14.63
2022-09-30T18:30:47.933Z,7.93
2022-09-30T18:33:17.224Z,12.05
2022-09-30T18:35:43.636Z,7.43
2022-09-30T18:38:12.643Z,10.65
2022-09-30T18:40:42.253Z,8.07
2022-09-30T18:43:12.856Z,12.25
2022-09-30T18:45:40.137Z,5.65
2022-09-30T18:48:07.430Z,6.20
2022-09-30T18:50:34.515Z,4.47
2022-09-30T18:53:09.442Z,7.22
2022-09-30T18:55:37.984Z,6.93
2022-09-30T18:58:04.489Z,7.05
2022-09-30T19:00:31.022Z,4.95
2022-09-30T19:02:57.520Z,5.40
2022-09-30T19:05:23.911Z,7.03
2022-09-30T19:07:52.524Z,6.35
2022-09-30T19:10:19.155Z,3.63
2022-09-30T19:12:45.620Z,6.20
2022-09-30T19:15:15.920Z,6.20
2022-09-30T19:17:43.574Z,5.90
2022-09-30T19:20:11.086Z,6.63
2022-09-30T19:22:37.828Z,5.35
2022-09-30T19:25:05.610Z,5.95
2022-09-30T19:27:33.132Z,6.25
2022-09-30T19:29:59.816Z,6.32
2022-09-30T19:32:29.320Z,8.82
2022-09-30T19:35:05.195Z,10.32
2022-09-30T19:37:32.658Z,11.55
2022-09-30T19:40:04.382Z,16.13
2022-09-30T19:42:39.407Z,27.33
2022-09-30T19:45:06.937Z,28.90
2022-09-30T19:47:34.433Z,56.75
2022-09-30T19:50:01.017Z,77.55
2022-09-30T19:52:27.819Z,73.57
2022-09-30T19:55:07.873Z,66.13
2022-09-30T19:57:37.537Z,35.30
2022-09-30T20:00:05.483Z,28.05
2022-09-30T20:02:35.818Z,24.90
2022-09-30T20:05:03.817Z,23.92
2022-09-30T20:07:30.186Z,19.98
2022-09-30T20:09:56.723Z,19.67
2022-09-30T20:12:23.536Z,16.60
2022-09-30T20:15:18.867Z,26.65
2022-09-30T20:17:45.325Z,17.77
2022-09-30T20:20:30.518Z,14.52
2022-09-30T20:23:00.156Z,47.30
2022-09-30T20:25:26.594Z,20.25
2022-09-30T20:27:53.066Z,20.92
2022-09-30T20:30:20.161Z,12.52
2022-09-30T20:32:46.643Z,29.95
2022-09-30T20:35:13.740Z,10.48
2022-09-30T20:37:40.839Z,15.98
2022-09-30T20:40:09.206Z,20.98
2022-09-30T20:42:37.771Z,31.63
2022-09-30T20:45:10.633Z,34.30
2022-09-30T20:47:38.077Z,20.27
2022-09-30T20:50:05.472Z,28.67
2022-09-30T20:52:32.005Z,36.63
2022-09-30T20:54:59.803Z,38.85
2022-09-30T20:57:30.070Z,30.88
2022-09-30T20:59:57.405Z,27.53
2022-09-30T21:02:27.858Z,18.52
2022-09-30T21:04:55.382Z,38.13
2022-09-30T21:07:21.742Z,19.38
2022-09-30T21:09:48.173Z,16.88
2022-09-30T21:12:16.761Z,11.98
2022-09-30T21:14:43.364Z,6.82
2022-09-30T21:17:10.114Z,5.28
2022-09-30T21:19:36.480Z,4.13
2022-09-30T21:22:02.846Z,5.07
2022-09-30T21:24:29.294Z,3.50
2022-09-30T21:26:55.813Z,8.75
2022-09-30T21:29:23.673Z,7.22
2022-09-30T21:31:50.115Z,21.58
2022-09-30T21:34:16.602Z,21.52
2022-09-30T21:36:43.037Z,48.40
2022-09-30T21:39:11.014Z,181.80
2022-09-30T21:41:37.824Z,149.52
2022-09-30T21:44:04.267Z,41.25
2022-09-30T21:46:30.706Z,20.73
2022-09-30T21:49:06.608Z,22.25
2022-09-30T21:51:35.319Z,13.80
2022-09-30T21:54:02.771Z,12.60
2022-09-30T21:56:29.284Z,10.20
2022-09-30T21:58:56.053Z,11.85
2022-09-30T22:01:22.668Z,15.63
2022-09-30T22:03:49.134Z,8.35
2022-09-30T22:06:18.698Z,9.23
2022-09-30T22:08:45.131Z,5.30
2022-09-30T22:11:17.347Z,4.47
2022-09-30T22:13:45.416Z,9.00
2022-09-30T22:16:15.191Z,7.10
2022-09-30T22:18:43.019Z,6.18
2022-09-30T22:21:12.741Z,5.85
2022-09-30T22:23:39.598Z,7.57
2022-09-30T22:26:10.343Z,7.65
2022-09-30T22:28:37.861Z,7.32
2022-09-30T22:31:19.358Z,9.02
2022-09-30T22:34:06.186Z,5.82
2022-09-30T22:36:50.913Z,8.45
2022-09-30T22:39:18.118Z,7.68
2022-09-30T22:41:44.921Z,9.35
2022-09-30T22:44:11.386Z,18.60
2022-09-30T22:46:39.358Z,9.18
2022-09-30T22:49:06.246Z,14.27
2022-09-30T22:51:33.014Z,76.82
2022-09-30T22:54:01.152Z,94.13
2022-09-30T22:56:27.601Z,69.82
2022-09-30T22:58:53.984Z,41.33
2022-09-30T23:01:20.437Z,30.00
2022-09-30T23:03:46.916Z,17.17
2022-09-30T23:06:13.337Z,11.50
2022-09-30T23:08:42.912Z,9.45
2022-09-30T23:11:10.590Z,13.10
2022-09-30T23:13:38.211Z,10.55
2022-09-30T23:16:06.827Z,7.88
2022-09-30T23:18:34.431Z,11.23
2022-09-30T23:21:09.691Z,7.32
2022-09-30T23:23:37.678Z,4.18
2022-09-30T23:26:17.641Z,6.63
2022-09-30T23:28:44.801Z,3.47
2022-09-30T23:31:16.511Z,4.93
2022-09-30T23:33:51.493Z,3.70
2022-09-30T23:36:20.693Z,6.75
2022-09-30T23:38:47.255Z,3.75
2022-09-30T23:41:14.244Z,3.22
2022-09-30T23:43:45.679Z,7.72
2022-09-30T23:46:12.394Z,3.47
2022-09-30T23:48:38.998Z,7.80
2022-09-30T23:51:06.019Z,2.92
2022-09-30T23:53:33.676Z,3.42
2022-09-30T23:56:06.682Z,4.97
2022-09-30T23:58:34.408Z,5.20
